createdAt,value
2018-12-21T00:00:13.248Z,10.13
2018-12-21T00:02:39.514Z,13.70
2018-12-21T00:05:05.992Z,16.53
2018-12-21T00:07:32.296Z,11.90
2018-12-21T00:09:58.569Z,14.97
2018-12-21T00:12:25.125Z,13.40
2018-12-21T00:14:51.388Z,15.83
2018-12-21T00:17:17.688Z,13.90
2018-12-21T00:19:43.989Z,13.30
2018-12-21T00:22:10.384Z,14.50
2018-12-21T00:24:36.661Z,13.57
2018-12-21T00:27:02.952Z,14.13
2018-12-21T00:29:29.252Z,14.37
2018-12-21T00:32:01.553Z,12.43
2018-12-21T00:34:33.948Z,13.37
2018-12-21T00:37:06.264Z,10.57
2018-12-21T00:39:38.508Z,14.93
2018-12-21T00:42:07.098Z,11.47
2018-12-21T00:44:33.897Z,15.00
2018-12-21T00:47:02.484Z,15.83
2018-12-21T00:49:28.775Z,15.47
2018-12-21T00:51:55.065Z,13.57
2018-12-21T00:54:21.752Z,14.03
2018-12-21T00:56:48.044Z,13.77
2018-12-21T00:59:14.405Z,15.67
2018-12-21T01:01:40.860Z,13.37
2018-12-21T01:04:07.713Z,13.43
2018-12-21T01:06:33.989Z,13.43
2018-12-21T01:09:00.652Z,15.13
2018-12-21T01:11:27.063Z,11.20
2018-12-21T01:13:53.373Z,10.60
2018-12-21T01:16:19.824Z,13.67
2018-12-21T01:18:46.238Z,14.23
2018-12-21T01:21:12.537Z,9.63
2018-12-21T01:23:38.825Z,13.60
2018-12-21T01:26:05.116Z,12.57
2018-12-21T01:28:31.437Z,12.10
2018-12-21T01:30:57.748Z,13.80
2018-12-21T01:33:24.176Z,11.10
2018-12-21T01:35:50.605Z,11.50
2018-12-21T01:38:17.254Z,13.70
2018-12-21T01:40:43.567Z,12.43
2018-12-21T01:43:09.863Z,15.50
2018-12-21T01:45:36.548Z,12.67
2018-12-21T01:48:03.148Z,12.60
2018-12-21T01:50:29.421Z,12.90
2018-12-21T01:52:55.942Z,16.83
2018-12-21T01:55:22.330Z,11.97
2018-12-21T01:57:48.632Z,16.57
2018-12-21T02:00:14.961Z,12.07
2018-12-21T02:02:41.367Z,13.70
2018-12-21T02:05:07.781Z,13.90
2018-12-21T02:07:34.392Z,11.37
2018-12-21T02:10:00.667Z,14.00
2018-12-21T02:12:26.948Z,12.30
2018-12-21T02:14:53.764Z,13.97
2018-12-21T02:17:20.028Z,12.23
2018-12-21T02:19:46.319Z,14.33
2018-12-21T02:22:13.058Z,14.87
2018-12-21T02:24:39.356Z,13.53
2018-12-21T02:27:05.656Z,16.27
2018-12-21T02:29:32.366Z,12.40
2018-12-21T02:31:58.652Z,13.03
2018-12-21T02:34:24.920Z,12.10
2018-12-21T02:36:51.432Z,14.90
2018-12-21T02:39:17.722Z,14.07
2018-12-21T02:41:44.012Z,13.70
2018-12-21T02:44:10.434Z,14.10
2018-12-21T02:46:43.587Z,9.87
2018-12-21T02:49:09.923Z,13.77
2018-12-21T02:51:36.324Z,13.70
2018-12-21T02:54:03.093Z,15.80
2018-12-21T02:56:29.366Z,13.63
2018-12-21T02:58:55.789Z,16.90
2018-12-21T03:01:22.114Z,13.40
2018-12-21T03:03:48.388Z,13.80
2018-12-21T03:06:14.913Z,14.60
2018-12-21T03:08:41.208Z,14.97
2018-12-21T03:11:07.878Z,14.33
2018-12-21T03:13:34.283Z,18.23
2018-12-21T03:16:00.552Z,13.40
2018-12-21T03:18:26.836Z,17.03
2018-12-21T03:20:53.289Z,14.67
2018-12-21T03:23:19.617Z,16.83
2018-12-21T03:25:46.369Z,16.70
2018-12-21T03:28:12.952Z,15.20
2018-12-21T03:30:39.250Z,15.60
2018-12-21T03:33:05.537Z,11.07
2018-12-21T03:35:31.992Z,11.47
2018-12-21T03:37:58.260Z,15.43
2018-12-21T03:40:24.541Z,15.27
2018-12-21T03:42:51.516Z,14.83
2018-12-21T03:45:17.801Z,10.97
2018-12-21T03:47:44.093Z,12.73
2018-12-21T03:50:10.820Z,14.00
2018-12-21T03:52:37.098Z,14.30
2018-12-21T03:55:03.828Z,18.10
2018-12-21T03:57:30.249Z,12.43
2018-12-21T03:59:56.560Z,14.37
2018-12-21T04:02:22.917Z,20.83
2018-12-21T04:04:49.337Z,16.13
2018-12-21T04:07:15.604Z,18.13
2018-12-21T04:09:41.884Z,15.03
2018-12-21T04:12:08.419Z,13.17
2018-12-21T04:14:35.219Z,16.30
2018-12-21T04:17:01.509Z,13.83
2018-12-21T04:19:28.074Z,17.77
2018-12-21T04:21:54.360Z,10.67
2018-12-21T04:24:20.636Z,11.23
2018-12-21T04:26:47.177Z,13.37
2018-12-21T04:29:13.482Z,16.90
2018-12-21T04:31:39.757Z,13.33
2018-12-21T04:34:06.325Z,16.90
2018-12-21T04:36:32.663Z,15.20
2018-12-21T04:38:59.029Z,13.67
2018-12-21T04:41:25.439Z,14.87
2018-12-21T04:43:52.242Z,14.43
2018-12-21T04:46:18.524Z,13.00
2018-12-21T04:48:45.017Z,16.27
2018-12-21T04:51:11.314Z,13.80
2018-12-21T04:53:37.588Z,11.93
2018-12-21T04:56:03.982Z,12.73
2018-12-21T04:58:30.265Z,13.53
2018-12-21T05:00:56.545Z,13.83
2018-12-21T05:03:23.544Z,13.73
2018-12-21T05:05:49.854Z,12.53
2018-12-21T05:08:16.268Z,13.40
2018-12-21T05:10:42.829Z,13.30
2018-12-21T05:13:09.112Z,14.17
2018-12-21T05:15:35.396Z,13.13
2018-12-21T05:18:01.670Z,10.93
2018-12-21T05:20:27.966Z,11.53
2018-12-21T05:22:54.324Z,13.63
2018-12-21T05:25:20.625Z,15.27
2018-12-21T05:27:46.984Z,13.13
2018-12-21T05:30:13.265Z,13.83
2018-12-21T05:32:39.701Z,12.37
2018-12-21T05:35:05.974Z,13.67
2018-12-21T05:37:32.262Z,12.83
2018-12-21T05:39:58.704Z,11.40
2018-12-21T05:42:24.979Z,13.67
2018-12-21T05:44:51.268Z,12.13
2018-12-21T05:47:17.689Z,13.87
2018-12-21T05:49:44.169Z,7.07
2018-12-21T05:52:10.476Z,13.67
2018-12-21T05:54:36.786Z,12.83
2018-12-21T05:57:03.084Z,14.60
2018-12-21T05:59:29.369Z,14.20
2018-12-21T06:01:55.781Z,12.97
2018-12-21T06:04:22.112Z,11.87
2018-12-21T06:06:48.403Z,13.50
2018-12-21T06:09:14.912Z,13.43
2018-12-21T06:11:41.216Z,12.57
2018-12-21T06:14:07.492Z,12.70
2018-12-21T06:16:33.933Z,13.83
2018-12-21T06:19:00.212Z,11.60
2018-12-21T06:21:26.519Z,10.77
2018-12-21T06:23:52.909Z,11.23
2018-12-21T06:26:19.188Z,10.87
2018-12-21T06:28:45.534Z,14.87
2018-12-21T06:31:12.077Z,15.27
2018-12-21T06:33:38.376Z,12.43
2018-12-21T06:36:04.968Z,14.23
2018-12-21T06:38:31.690Z,12.77
2018-12-21T06:40:57.981Z,12.43
2018-12-21T06:43:24.262Z,27.13
2018-12-21T06:45:51.372Z,11.90
2018-12-21T06:48:17.667Z,8.90
2018-12-21T06:50:43.952Z,9.83
2018-12-21T06:53:17.758Z,9.40
2018-12-21T06:55:38.740Z,11.47
2018-12-21T06:58:05.077Z,15.57
2018-12-21T07:00:32.442Z,10.30
2018-12-21T07:02:58.833Z,12.70
2018-12-21T07:05:25.288Z,9.57
2018-12-21T07:07:51.968Z,13.77
2018-12-21T07:10:18.288Z,14.60
2018-12-21T07:12:46.764Z,16.43
2018-12-21T07:15:13.165Z,11.83
2018-12-21T07:17:39.440Z,10.13
2018-12-21T07:20:05.972Z,11.30
2018-12-21T07:22:32.405Z,10.70
2018-12-21T07:24:58.668Z,10.20
2018-12-21T07:27:24.973Z,10.20
2018-12-21T07:29:51.712Z,10.30
2018-12-21T07:32:17.996Z,9.50
2018-12-21T07:34:44.341Z,7.43
2018-12-21T07:37:10.725Z,8.70
2018-12-21T07:39:36.997Z,10.73
2018-12-21T07:42:03.267Z,8.43
2018-12-21T07:44:30.008Z,11.47
2018-12-21T07:46:56.296Z,8.23
2018-12-21T07:49:22.608Z,9.10
2018-12-21T07:51:49.021Z,8.57
2018-12-21T07:54:15.356Z,11.80
2018-12-21T07:56:41.653Z,10.03
2018-12-21T07:59:08.309Z,9.80
2018-12-21T08:01:34.596Z,10.00
2018-12-21T08:04:00.900Z,9.07
2018-12-21T08:06:27.536Z,9.57
2018-12-21T08:08:53.885Z,8.67
2018-12-21T08:11:20.161Z,11.23
2018-12-21T08:13:46.904Z,8.87
2018-12-21T08:16:13.205Z,10.13
2018-12-21T08:18:39.482Z,13.10
2018-12-21T08:21:05.917Z,9.63
2018-12-21T08:23:32.193Z,7.30
2018-12-21T08:25:58.473Z,12.53
2018-12-21T08:28:24.792Z,9.47
2018-12-21T08:30:51.060Z,10.23
2018-12-21T08:33:17.361Z,10.73
2018-12-21T08:35:43.896Z,9.83
2018-12-21T08:38:10.400Z,9.10
2018-12-21T08:40:36.743Z,7.67
2018-12-21T08:43:03.496Z,6.37
2018-12-21T08:45:29.825Z,8.43
2018-12-21T08:47:56.104Z,7.57
2018-12-21T08:50:22.517Z,9.40
2018-12-21T08:52:48.784Z,8.37
2018-12-21T08:55:15.117Z,10.60
2018-12-21T08:57:41.425Z,11.00
2018-12-21T09:00:09.853Z,11.50
2018-12-21T09:02:36.142Z,8.33
2018-12-21T09:05:02.966Z,9.93
2018-12-21T09:07:29.245Z,8.60
2018-12-21T09:09:55.530Z,6.17
2018-12-21T09:12:21.932Z,7.63
2018-12-21T09:14:48.196Z,10.87
2018-12-21T09:17:14.474Z,9.47
2018-12-21T09:19:40.882Z,8.90
2018-12-21T09:22:07.174Z,8.87
2018-12-21T09:24:33.453Z,8.70
2018-12-21T09:26:59.900Z,10.60
2018-12-21T09:29:26.231Z,12.23
2018-12-21T09:31:52.548Z,9.00
2018-12-21T09:34:19.249Z,9.93
2018-12-21T09:36:45.529Z,10.40
2018-12-21T09:39:11.816Z,10.03
2018-12-21T09:41:38.132Z,11.37
2018-12-21T09:44:04.466Z,9.87
2018-12-21T09:46:30.754Z,12.63
2018-12-21T09:48:57.557Z,9.53
2018-12-21T09:51:23.829Z,10.47
2018-12-21T09:53:50.108Z,8.10
2018-12-21T09:56:16.404Z,9.67
2018-12-21T09:58:42.762Z,9.33
2018-12-21T10:01:09.049Z,11.27
2018-12-21T10:03:35.406Z,9.20
2018-12-21T10:06:01.715Z,9.00
2018-12-21T10:08:28.059Z,9.73
2018-12-21T10:10:54.640Z,7.03
2018-12-21T10:13:20.898Z,7.93
2018-12-21T10:15:47.197Z,10.13
2018-12-21T10:18:13.496Z,8.60
2018-12-21T10:20:39.756Z,11.10
2018-12-21T10:23:06.017Z,12.00
2018-12-21T10:25:32.304Z,11.57
2018-12-21T10:27:58.584Z,13.43
2018-12-21T10:30:24.845Z,9.60
2018-12-21T10:32:51.133Z,8.57
2018-12-21T10:35:17.412Z,9.63
2018-12-21T10:37:43.708Z,11.20
2018-12-21T10:40:10.184Z,11.07
2018-12-21T10:42:36.480Z,9.60
2018-12-21T10:45:04.129Z,10.13
2018-12-21T10:47:30.425Z,9.37
2018-12-21T10:49:56.756Z,8.40
2018-12-21T10:52:23.269Z,8.13
2018-12-21T10:54:49.560Z,9.73
2018-12-21T10:57:15.840Z,10.57
2018-12-21T10:59:43.548Z,10.83
2018-12-21T11:02:10.361Z,10.20
2018-12-21T11:04:36.640Z,10.33
2018-12-21T11:07:03.769Z,9.43
2018-12-21T11:09:30.201Z,9.03
2018-12-21T11:11:56.808Z,8.27
2018-12-21T11:14:23.260Z,8.97
2018-12-21T11:16:50.071Z,10.33
2018-12-21T11:19:16.352Z,9.27
2018-12-21T11:21:42.712Z,8.30
2018-12-21T11:24:09.167Z,7.73
2018-12-21T11:26:35.486Z,10.73
2018-12-21T11:29:01.908Z,11.03
2018-12-21T11:31:28.332Z,8.43
2018-12-21T11:33:54.616Z,9.00
2018-12-21T11:36:20.887Z,7.57
2018-12-21T11:38:47.657Z,10.00
2018-12-21T11:41:13.981Z,9.47
2018-12-21T11:43:40.342Z,9.00
2018-12-21T11:46:06.755Z,9.63
2018-12-21T11:48:33.052Z,10.03
2018-12-21T11:50:59.384Z,9.27
2018-12-21T11:53:26.240Z,8.67
2018-12-21T11:55:52.509Z,7.83
2018-12-21T11:58:18.792Z,8.43
2018-12-21T12:00:45.573Z,9.60
2018-12-21T12:03:11.991Z,8.13
2018-12-21T12:05:38.290Z,7.00
2018-12-21T12:08:04.752Z,7.73
2018-12-21T12:10:31.044Z,8.37
2018-12-21T12:12:57.424Z,7.03
2018-12-21T12:15:23.986Z,8.07
2018-12-21T12:17:50.248Z,7.53
2018-12-21T12:20:19.223Z,7.97
2018-12-21T12:22:45.589Z,9.40
2018-12-21T12:25:12.005Z,8.40
2018-12-21T12:27:38.302Z,10.30
2018-12-21T12:30:07.339Z,10.07
2018-12-21T12:32:33.625Z,7.60
2018-12-21T12:34:59.925Z,7.67
2018-12-21T12:37:26.313Z,7.03
2018-12-21T12:39:52.598Z,5.93
2018-12-21T12:42:18.976Z,5.83
2018-12-21T12:44:45.254Z,5.33
2018-12-21T12:47:11.621Z,4.97
2018-12-21T12:49:37.892Z,4.53
2018-12-21T12:52:04.393Z,5.47
2018-12-21T12:54:30.799Z,6.67
2018-12-21T12:56:57.097Z,5.87
2018-12-21T12:59:23.516Z,7.17
2018-12-21T13:01:49.901Z,5.83
2018-12-21T13:04:16.316Z,4.70
2018-12-21T13:06:42.965Z,6.67
2018-12-21T13:09:09.229Z,5.43
2018-12-21T13:11:35.506Z,4.00
2018-12-21T13:14:05.773Z,5.77
2018-12-21T13:16:32.052Z,6.63
2018-12-21T13:18:58.345Z,3.30
2018-12-21T13:21:24.953Z,5.13
2018-12-21T13:23:51.277Z,7.80
2018-12-21T13:26:17.599Z,3.23
2018-12-21T13:28:44.046Z,4.73
2018-12-21T13:31:10.363Z,4.40
2018-12-21T13:33:36.749Z,3.63
2018-12-21T13:36:03.400Z,2.47
2018-12-21T13:38:29.700Z,5.33
2018-12-21T13:40:55.988Z,4.40
2018-12-21T13:43:22.376Z,2.90
2018-12-21T13:45:48.652Z,4.23
2018-12-21T13:48:14.968Z,5.10
2018-12-21T13:50:41.688Z,3.17
2018-12-21T13:53:07.980Z,3.93
2018-12-21T13:55:34.272Z,4.33
2018-12-21T13:58:00.568Z,5.63
2018-12-21T14:00:26.876Z,3.17
2018-12-21T14:02:53.177Z,2.23
2018-12-21T14:05:19.659Z,3.07
2018-12-21T14:07:46.897Z,2.53
2018-12-21T14:10:13.243Z,2.77
2018-12-21T14:12:39.769Z,2.80
2018-12-21T14:15:06.456Z,5.90
2018-12-21T14:17:32.737Z,3.50
2018-12-21T14:19:59.120Z,2.10
2018-12-21T14:22:25.701Z,3.07
2018-12-21T14:24:51.985Z,2.50
2018-12-21T14:27:18.370Z,3.17
2018-12-21T14:29:44.654Z,2.97
2018-12-21T14:32:10.986Z,2.97
2018-12-21T14:34:37.666Z,3.23
2018-12-21T14:37:03.938Z,2.13
2018-12-21T14:39:30.240Z,2.63
2018-12-21T14:41:56.966Z,2.63
2018-12-21T14:44:23.252Z,2.20
2018-12-21T14:46:49.541Z,3.67
2018-12-21T14:49:16.262Z,2.37
2018-12-21T14:51:42.573Z,2.20
2018-12-21T14:54:08.959Z,3.13
2018-12-21T14:56:35.264Z,3.03
2018-12-21T14:59:01.549Z,2.47
2018-12-21T15:01:28.030Z,3.03
2018-12-21T15:03:54.321Z,2.47
2018-12-21T15:06:27.540Z,2.87
2018-12-21T15:08:53.830Z,2.50
2018-12-21T15:11:20.112Z,2.40
2018-12-21T15:13:46.437Z,3.17
2018-12-21T15:16:12.770Z,2.97
2018-12-21T15:18:39.329Z,3.80
2018-12-21T15:21:05.640Z,4.83
2018-12-21T15:23:31.916Z,2.53
2018-12-21T15:25:58.320Z,2.23
2018-12-21T15:28:31.684Z,5.73
2018-12-21T15:30:57.961Z,4.27
2018-12-21T15:33:24.347Z,3.57
2018-12-21T15:35:50.626Z,3.07
2018-12-21T15:38:16.920Z,2.40
2018-12-21T15:40:43.193Z,2.77
2018-12-21T15:43:09.508Z,2.93
2018-12-21T15:45:35.781Z,2.60
2018-12-21T15:48:02.356Z,2.50
2018-12-21T15:50:28.638Z,2.30
2018-12-21T15:52:54.933Z,3.77
2018-12-21T15:55:21.332Z,2.53
2018-12-21T15:57:47.678Z,2.50
2018-12-21T16:00:14.105Z,4.07
2018-12-21T16:02:40.586Z,4.37
2018-12-21T16:05:06.945Z,2.77
2018-12-21T16:07:33.237Z,3.33
2018-12-21T16:09:59.513Z,3.30
2018-12-21T16:12:25.816Z,3.60
2018-12-21T16:14:52.089Z,3.53
2018-12-21T16:17:18.520Z,4.23
2018-12-21T16:19:44.796Z,5.53
2018-12-21T16:22:11.069Z,3.37
2018-12-21T16:24:37.468Z,4.00
2018-12-21T16:27:03.789Z,4.43
2018-12-21T16:29:30.077Z,4.07
2018-12-21T16:31:56.672Z,4.17
2018-12-21T16:34:22.955Z,3.60
2018-12-21T16:36:49.246Z,4.17
2018-12-21T16:39:15.674Z,4.57
2018-12-21T16:41:41.949Z,3.40
2018-12-21T16:44:08.254Z,4.87
2018-12-21T16:46:34.687Z,4.47
2018-12-21T16:49:01.044Z,3.70
2018-12-21T16:51:27.359Z,5.73
2018-12-21T16:53:53.773Z,3.77
2018-12-21T16:56:20.153Z,4.87
2018-12-21T16:58:46.434Z,3.30
2018-12-21T17:01:12.924Z,3.60
2018-12-21T17:03:39.236Z,4.23
2018-12-21T17:06:05.597Z,4.00
2018-12-21T17:08:31.879Z,3.37
2018-12-21T17:10:58.190Z,3.83
2018-12-21T17:13:24.500Z,4.67
2018-12-21T17:15:51.209Z,3.97
2018-12-21T17:18:17.660Z,3.63
2018-12-21T17:20:43.960Z,3.27
2018-12-21T17:23:10.507Z,3.00
2018-12-21T17:25:36.816Z,3.20
2018-12-21T17:28:03.093Z,3.83
2018-12-21T17:30:29.396Z,3.80
2018-12-21T17:32:55.745Z,2.67
2018-12-21T17:35:22.036Z,4.33
2018-12-21T17:37:55.451Z,3.60
2018-12-21T17:40:21.740Z,4.10
2018-12-21T17:42:48.461Z,3.70
2018-12-21T17:45:14.889Z,4.43
2018-12-21T17:47:41.202Z,3.27
2018-12-21T17:50:07.680Z,2.90
2018-12-21T17:52:34.182Z,3.67
2018-12-21T17:55:00.488Z,3.23
2018-12-21T17:57:26.781Z,4.13
2018-12-21T17:59:53.169Z,2.93
2018-12-21T18:02:19.448Z,4.33
2018-12-21T18:04:45.754Z,4.23
2018-12-21T18:07:12.043Z,3.40
2018-12-21T18:09:38.360Z,3.27
2018-12-21T18:12:04.746Z,4.47
2018-12-21T18:14:31.458Z,4.07
2018-12-21T18:16:57.769Z,3.57
2018-12-21T18:19:24.172Z,3.73
2018-12-21T18:21:50.585Z,3.93
2018-12-21T18:24:16.871Z,5.43
2018-12-21T18:26:43.347Z,3.83
2018-12-21T18:29:09.612Z,5.03
2018-12-21T18:31:47.928Z,4.47
2018-12-21T18:34:16.965Z,4.73
2018-12-21T18:36:43.295Z,4.53
2018-12-21T18:39:09.616Z,6.77
2018-12-21T18:41:35.883Z,4.60
2018-12-21T18:44:02.397Z,5.67
2018-12-21T18:46:28.860Z,4.67
2018-12-21T18:48:55.245Z,4.23
2018-12-21T18:51:21.517Z,4.03
2018-12-21T18:53:47.842Z,6.00
2018-12-21T18:56:16.085Z,5.77
2018-12-21T18:58:42.352Z,4.67
2018-12-21T19:01:08.660Z,3.80
2018-12-21T19:03:35.392Z,5.03
2018-12-21T19:06:01.926Z,4.50
2018-12-21T19:08:28.193Z,3.77
2018-12-21T19:10:54.696Z,4.83
2018-12-21T19:13:20.981Z,5.00
2018-12-21T19:15:47.265Z,5.00
2018-12-21T19:20:46.941Z,4.37
2018-12-21T19:23:13.225Z,3.93
2018-12-21T19:25:39.745Z,6.50
2018-12-21T19:28:06.018Z,4.60
2018-12-21T19:30:32.618Z,4.47
2018-12-21T19:32:59.361Z,3.37
2018-12-21T19:35:28.758Z,3.53
2018-12-21T19:37:53.928Z,3.37
2018-12-21T19:40:20.545Z,4.07
2018-12-21T19:42:46.980Z,3.93
2018-12-21T19:45:13.279Z,4.17
2018-12-21T19:47:39.606Z,4.37
2018-12-21T19:50:07.033Z,6.23
2018-12-21T19:52:33.293Z,4.10
2018-12-21T19:55:02.559Z,3.03
2018-12-21T19:57:28.845Z,4.07
2018-12-21T19:59:55.153Z,4.87
2018-12-21T20:02:21.793Z,4.23
2018-12-21T20:04:48.088Z,3.90
2018-12-21T20:07:14.366Z,4.27
2018-12-21T20:09:40.736Z,4.23
2018-12-21T20:12:07.018Z,4.13
2018-12-21T20:14:33.305Z,4.40
2018-12-21T20:17:00.082Z,5.20
2018-12-21T20:19:26.395Z,5.23
2018-12-21T20:21:52.667Z,5.73
2018-12-21T20:24:19.127Z,5.17
2018-12-21T20:26:45.612Z,4.83
2018-12-21T20:29:11.911Z,4.17
2018-12-21T20:31:38.309Z,5.87
2018-12-21T20:34:04.617Z,4.53
2018-12-21T20:36:30.892Z,3.90
2018-12-21T20:38:57.292Z,4.50
2018-12-21T20:41:23.573Z,5.17
2018-12-21T20:43:49.833Z,4.00
2018-12-21T20:46:16.368Z,5.43
2018-12-21T20:48:42.668Z,5.83
2018-12-21T20:51:08.953Z,4.33
2018-12-21T20:53:35.461Z,3.70
2018-12-21T20:56:01.753Z,4.77
2018-12-21T20:58:29.569Z,3.93
2018-12-21T21:00:55.870Z,5.90
2018-12-21T21:03:22.164Z,4.20
2018-12-21T21:05:48.454Z,4.73
2018-12-21T21:08:15.201Z,5.30
2018-12-21T21:10:41.528Z,4.83
2018-12-21T21:13:07.819Z,4.93
2018-12-21T21:15:34.234Z,6.53
2018-12-21T21:18:00.517Z,4.73
2018-12-21T21:20:26.789Z,4.47
2018-12-21T21:22:53.487Z,4.13
2018-12-21T21:25:19.770Z,4.40
2018-12-21T21:27:46.048Z,5.17
2018-12-21T21:30:15.258Z,3.93
2018-12-21T21:32:41.596Z,4.70
2018-12-21T21:35:07.997Z,3.87
2018-12-21T21:37:34.549Z,5.27
2018-12-21T21:40:03.877Z,5.70
2018-12-21T21:42:30.142Z,4.13
2018-12-21T21:44:56.541Z,3.90
2018-12-21T21:47:22.856Z,4.60
2018-12-21T21:49:49.129Z,4.40
2018-12-21T21:52:15.649Z,4.00
2018-12-21T21:54:41.974Z,3.97
2018-12-21T21:57:08.249Z,4.23
2018-12-21T21:59:34.702Z,3.80
2018-12-21T22:02:00.981Z,5.63
2018-12-21T22:04:27.284Z,4.37
2018-12-21T22:06:53.724Z,4.27
2018-12-21T22:09:20.036Z,3.43
2018-12-21T22:11:46.318Z,5.53
2018-12-21T22:14:12.601Z,6.57
2018-12-21T22:16:38.929Z,4.30
2018-12-21T22:19:05.314Z,4.37
2018-12-21T22:21:31.596Z,3.80
2018-12-21T22:23:57.881Z,4.17
2018-12-21T22:26:24.189Z,3.77
2018-12-21T22:28:50.661Z,4.40
2018-12-21T22:31:16.951Z,4.87
2018-12-21T22:33:43.230Z,4.83
2018-12-21T22:36:09.705Z,4.33
2018-12-21T22:38:36.013Z,3.60
2018-12-21T22:41:02.349Z,4.03
2018-12-21T22:43:28.902Z,6.27
2018-12-21T22:45:55.214Z,5.53
2018-12-21T22:48:21.507Z,3.93
2018-12-21T22:50:47.893Z,5.57
2018-12-21T22:53:14.168Z,5.83
2018-12-21T22:55:40.433Z,3.80
2018-12-21T22:58:06.892Z,2.90
2018-12-21T23:00:35.377Z,3.57
2018-12-21T23:03:01.790Z,4.33
2018-12-21T23:05:28.305Z,2.80
2018-12-21T23:07:54.754Z,3.70
2018-12-21T23:10:21.781Z,3.07
2018-12-21T23:12:48.541Z,2.90
2018-12-21T23:15:14.831Z,3.33
2018-12-21T23:17:41.097Z,3.30
2018-12-21T23:20:07.382Z,3.53
2018-12-21T23:22:33.717Z,2.93
2018-12-21T23:25:00.014Z,3.93
2018-12-21T23:27:26.440Z,2.70
2018-12-21T23:29:52.708Z,3.27
2018-12-21T23:32:18.980Z,2.97
2018-12-21T23:34:45.345Z,2.13
2018-12-21T23:37:11.669Z,3.87
2018-12-21T23:39:38.088Z,3.40
2018-12-21T23:42:04.502Z,3.97
2018-12-21T23:44:30.809Z,3.93
2018-12-21T23:46:57.084Z,4.93
2018-12-21T23:49:23.527Z,2.53
2018-12-21T23:51:49.845Z,3.17
2018-12-21T23:54:16.152Z,3.33
2018-12-21T23:56:42.812Z,3.13
2018-12-21T23:59:09.072Z,4.67
